sensor_id;sensor_type;location;lat;lon;timestamp;P1;durP1;ratioP1;P2;durP2;ratioP2
31652;SDS011;18261;53.648;9.910;2023-01-19T00:01:22;40.33;;;19.42;;
31652;SDS011;18261;53.648;9.910;2023-01-19T00:03:48;38.85;;;19.25;;
31652;SDS011;18261;53.648;9.910;2023-01-19T00:06:14;38.03;;;19.30;;
31652;SDS011;18261;53.648;9.910;2023-01-19T00:08:40;43.17;;;20.52;;
31652;SDS011;18261;53.648;9.910;2023-01-19T00:11:08;45.72;;;19.27;;
31652;SDS011;18261;53.648;9.910;2023-01-19T00:13:35;39.30;;;19.25;;
31652;SDS011;18261;53.648;9.910;2023-01-19T00:16:00;35.22;;;18.35;;
31652;SDS011;18261;53.648;9.910;2023-01-19T00:18:26;35.92;;;18.35;;
31652;SDS011;18261;53.648;9.910;2023-01-19T00:20:52;40.47;;;19.20;;
31652;SDS011;18261;53.648;9.910;2023-01-19T00:23:17;43.65;;;19.98;;
31652;SDS011;18261;53.648;9.910;2023-01-19T00:25:44;42.60;;;19.02;;
31652;SDS011;18261;53.648;9.910;2023-01-19T00:28:11;38.65;;;18.23;;
31652;SDS011;18261;53.648;9.910;2023-01-19T00:30:38;36.78;;;19.08;;
31652;SDS011;18261;53.648;9.910;2023-01-19T00:33:05;43.65;;;19.17;;
31652;SDS011;18261;53.648;9.910;2023-01-19T00:35:32;39.42;;;19.92;;
31652;SDS011;18261;53.648;9.910;2023-01-19T00:37:58;44.90;;;20.10;;
31652;SDS011;18261;53.648;9.910;2023-01-19T00:40:24;58.08;;;20.48;;
31652;SDS011;18261;53.648;9.910;2023-01-19T00:42:50;38.20;;;18.63;;
31652;SDS011;18261;53.648;9.910;2023-01-19T00:45:16;41.10;;;19.92;;
31652;SDS011;18261;53.648;9.910;2023-01-19T00:47:44;38.85;;;19.05;;
31652;SDS011;18261;53.648;9.910;2023-01-19T00:50:10;40.50;;;18.90;;
31652;SDS011;18261;53.648;9.910;2023-01-19T00:52:37;35.45;;;18.70;;
31652;SDS011;18261;53.648;9.910;2023-01-19T00:55:03;35.47;;;18.70;;
31652;SDS011;18261;53.648;9.910;2023-01-19T00:57:29;36.30;;;19.27;;
31652;SDS011;18261;53.648;9.910;2023-01-19T00:59:55;43.03;;;19.02;;
31652;SDS011;18261;53.648;9.910;2023-01-19T01:02:20;43.53;;;20.63;;
31652;SDS011;18261;53.648;9.910;2023-01-19T01:04:46;49.45;;;19.98;;
31652;SDS011;18261;53.648;9.910;2023-01-19T01:07:11;39.72;;;20.30;;
31652;SDS011;18261;53.648;9.910;2023-01-19T01:09:37;37.92;;;19.08;;
31652;SDS011;18261;53.648;9.910;2023-01-19T01:12:03;41.78;;;19.33;;
31652;SDS011;18261;53.648;9.910;2023-01-19T01:14:28;40.85;;;19.05;;
31652;SDS011;18261;53.648;9.910;2023-01-19T01:16:54;45.70;;;19.55;;
31652;SDS011;18261;53.648;9.910;2023-01-19T01:19:19;43.70;;;18.98;;
31652;SDS011;18261;53.648;9.910;2023-01-19T01:21:45;48.15;;;19.50;;
31652;SDS011;18261;53.648;9.910;2023-01-19T01:24:11;42.97;;;18.67;;
31652;SDS011;18261;53.648;9.910;2023-01-19T01:26:36;41.05;;;20.83;;
31652;SDS011;18261;53.648;9.910;2023-01-19T01:29:03;46.38;;;19.38;;
31652;SDS011;18261;53.648;9.910;2023-01-19T01:31:29;36.85;;;19.15;;
31652;SDS011;18261;53.648;9.910;2023-01-19T01:33:55;39.40;;;20.70;;
31652;SDS011;18261;53.648;9.910;2023-01-19T01:36:21;39.08;;;19.83;;
31652;SDS011;18261;53.648;9.910;2023-01-19T01:38:46;50.95;;;20.67;;
31652;SDS011;18261;53.648;9.910;2023-01-19T01:41:12;42.17;;;19.58;;
31652;SDS011;18261;53.648;9.910;2023-01-19T01:43:45;46.13;;;19.92;;
31652;SDS011;18261;53.648;9.910;2023-01-19T01:46:17;48.85;;;19.42;;
31652;SDS011;18261;53.648;9.910;2023-01-19T01:48:45;44.67;;;19.80;;
31652;SDS011;18261;53.648;9.910;2023-01-19T01:56:33;45.10;;;19.42;;
31652;SDS011;18261;53.648;9.910;2023-01-19T01:59:04;38.92;;;19.27;;
31652;SDS011;18261;53.648;9.910;2023-01-19T02:01:33;39.13;;;18.63;;
31652;SDS011;18261;53.648;9.910;2023-01-19T02:04:17;36.90;;;19.55;;
31652;SDS011;18261;53.648;9.910;2023-01-19T02:06:43;40.35;;;19.90;;
31652;SDS011;18261;53.648;9.910;2023-01-19T02:09:27;33.90;;;15.98;;
31652;SDS011;18261;53.648;9.910;2023-01-19T02:12:14;40.20;;;19.98;;
31652;SDS011;18261;53.648;9.910;2023-01-19T02:17:25;37.85;;;18.80;;
31652;SDS011;18261;53.648;9.910;2023-01-19T02:19:50;36.22;;;17.58;;
31652;SDS011;18261;53.648;9.910;2023-01-19T02:25:11;45.22;;;20.10;;
31652;SDS011;18261;53.648;9.910;2023-01-19T02:27:37;41.67;;;19.02;;
31652;SDS011;18261;53.648;9.910;2023-01-19T02:30:03;39.63;;;17.83;;
31652;SDS011;18261;53.648;9.910;2023-01-19T02:32:30;38.53;;;18.85;;
31652;SDS011;18261;53.648;9.910;2023-01-19T02:34:55;42.63;;;18.42;;
31652;SDS011;18261;53.648;9.910;2023-01-19T02:37:21;33.10;;;17.50;;
31652;SDS011;18261;53.648;9.910;2023-01-19T02:39:51;39.15;;;18.17;;
31652;SDS011;18261;53.648;9.910;2023-01-19T02:44:58;37.78;;;18.98;;
31652;SDS011;18261;53.648;9.910;2023-01-19T02:47:24;40.25;;;18.45;;
31652;SDS011;18261;53.648;9.910;2023-01-19T02:49:55;39.63;;;20.02;;
31652;SDS011;18261;53.648;9.910;2023-01-19T02:52:21;42.42;;;19.00;;
31652;SDS011;18261;53.648;9.910;2023-01-19T02:58:02;38.58;;;19.38;;
31652;SDS011;18261;53.648;9.910;2023-01-19T03:06:02;32.13;;;17.63;;
31652;SDS011;18261;53.648;9.910;2023-01-19T03:11:19;41.13;;;19.85;;
31652;SDS011;18261;53.648;9.910;2023-01-19T03:13:55;34.13;;;18.45;;
31652;SDS011;18261;53.648;9.910;2023-01-19T03:16:35;39.13;;;18.98;;
31652;SDS011;18261;53.648;9.910;2023-01-19T03:19:30;37.00;;;18.95;;
31652;SDS011;18261;53.648;9.910;2023-01-19T03:22:02;33.35;;;18.25;;
31652;SDS011;18261;53.648;9.910;2023-01-19T03:24:33;39.10;;;18.55;;
31652;SDS011;18261;53.648;9.910;2023-01-19T03:27:05;38.70;;;19.77;;
31652;SDS011;18261;53.648;9.910;2023-01-19T03:29:35;45.50;;;19.45;;
31652;SDS011;18261;53.648;9.910;2023-01-19T03:32:06;41.22;;;18.77;;
31652;SDS011;18261;53.648;9.910;2023-01-19T03:34:36;37.20;;;18.63;;
31652;SDS011;18261;53.648;9.910;2023-01-19T03:37:03;35.85;;;19.15;;
31652;SDS011;18261;53.648;9.910;2023-01-19T03:39:31;36.13;;;18.85;;
31652;SDS011;18261;53.648;9.910;2023-01-19T03:41:59;34.72;;;20.10;;
31652;SDS011;18261;53.648;9.910;2023-01-19T03:44:31;36.13;;;20.38;;
31652;SDS011;18261;53.648;9.910;2023-01-19T03:46:58;39.63;;;20.23;;
31652;SDS011;18261;53.648;9.910;2023-01-19T03:49:25;34.35;;;19.10;;
31652;SDS011;18261;53.648;9.910;2023-01-19T03:51:54;41.53;;;20.23;;
31652;SDS011;18261;53.648;9.910;2023-01-19T03:54:22;35.35;;;19.92;;
31652;SDS011;18261;53.648;9.910;2023-01-19T03:56:48;37.97;;;20.08;;
31652;SDS011;18261;53.648;9.910;2023-01-19T03:59:14;40.25;;;20.73;;
31652;SDS011;18261;53.648;9.910;2023-01-19T04:01:41;41.80;;;19.45;;
31652;SDS011;18261;53.648;9.910;2023-01-19T04:04:07;39.90;;;19.63;;
31652;SDS011;18261;53.648;9.910;2023-01-19T04:06:32;36.33;;;19.85;;
31652;SDS011;18261;53.648;9.910;2023-01-19T04:08:58;39.85;;;19.90;;
31652;SDS011;18261;53.648;9.910;2023-01-19T04:11:23;36.90;;;19.63;;
31652;SDS011;18261;53.648;9.910;2023-01-19T04:13:49;38.88;;;20.42;;
31652;SDS011;18261;53.648;9.910;2023-01-19T04:16:15;40.67;;;20.40;;
31652;SDS011;18261;53.648;9.910;2023-01-19T04:18:44;36.20;;;19.80;;
31652;SDS011;18261;53.648;9.910;2023-01-19T04:21:09;39.40;;;21.55;;
31652;SDS011;18261;53.648;9.910;2023-01-19T04:23:35;35.97;;;19.30;;
31652;SDS011;18261;53.648;9.910;2023-01-19T04:26:02;38.03;;;20.47;;
31652;SDS011;18261;53.648;9.910;2023-01-19T04:28:30;41.72;;;21.42;;
31652;SDS011;18261;53.648;9.910;2023-01-19T04:30:56;37.42;;;20.98;;
31652;SDS011;18261;53.648;9.910;2023-01-19T04:33:22;42.17;;;22.17;;
31652;SDS011;18261;53.648;9.910;2023-01-19T04:35:48;43.15;;;23.23;;
31652;SDS011;18261;53.648;9.910;2023-01-19T04:38:15;43.15;;;23.65;;
31652;SDS011;18261;53.648;9.910;2023-01-19T04:40:41;41.65;;;23.45;;
31652;SDS011;18261;53.648;9.910;2023-01-19T04:43:06;44.25;;;23.48;;
31652;SDS011;18261;53.648;9.910;2023-01-19T04:45:32;42.47;;;24.13;;
31652;SDS011;18261;53.648;9.910;2023-01-19T04:47:58;49.78;;;25.55;;
31652;SDS011;18261;53.648;9.910;2023-01-19T04:50:23;44.85;;;24.70;;
31652;SDS011;18261;53.648;9.910;2023-01-19T04:52:49;42.28;;;24.73;;
31652;SDS011;18261;53.648;9.910;2023-01-19T04:55:15;43.30;;;23.92;;
31652;SDS011;18261;53.648;9.910;2023-01-19T04:57:41;45.05;;;23.80;;
31652;SDS011;18261;53.648;9.910;2023-01-19T05:00:08;42.80;;;24.17;;
31652;SDS011;18261;53.648;9.910;2023-01-19T05:02:34;43.42;;;24.20;;
31652;SDS011;18261;53.648;9.910;2023-01-19T05:05:00;44.72;;;23.30;;
31652;SDS011;18261;53.648;9.910;2023-01-19T05:07:26;45.00;;;24.02;;
31652;SDS011;18261;53.648;9.910;2023-01-19T05:09:51;38.65;;;22.65;;
31652;SDS011;18261;53.648;9.910;2023-01-19T05:12:17;45.30;;;23.08;;
31652;SDS011;18261;53.648;9.910;2023-01-19T05:14:43;42.17;;;22.65;;
31652;SDS011;18261;53.648;9.910;2023-01-19T05:17:09;43.47;;;23.65;;
31652;SDS011;18261;53.648;9.910;2023-01-19T05:19:35;41.67;;;23.95;;
31652;SDS011;18261;53.648;9.910;2023-01-19T05:22:01;38.55;;;23.42;;
31652;SDS011;18261;53.648;9.910;2023-01-19T05:24:28;46.10;;;23.73;;
31652;SDS011;18261;53.648;9.910;2023-01-19T05:26:53;44.65;;;23.40;;
31652;SDS011;18261;53.648;9.910;2023-01-19T05:29:19;48.75;;;24.15;;
31652;SDS011;18261;53.648;9.910;2023-01-19T05:31:45;39.80;;;21.98;;
31652;SDS011;18261;53.648;9.910;2023-01-19T05:34:11;35.03;;;22.08;;
31652;SDS011;18261;53.648;9.910;2023-01-19T05:36:36;37.85;;;22.08;;
31652;SDS011;18261;53.648;9.910;2023-01-19T05:39:02;44.67;;;23.10;;
31652;SDS011;18261;53.648;9.910;2023-01-19T05:41:28;35.28;;;22.23;;
31652;SDS011;18261;53.648;9.910;2023-01-19T05:43:54;39.28;;;23.98;;
31652;SDS011;18261;53.648;9.910;2023-01-19T05:46:19;39.67;;;23.60;;
31652;SDS011;18261;53.648;9.910;2023-01-19T05:48:45;40.25;;;23.83;;
31652;SDS011;18261;53.648;9.910;2023-01-19T05:51:10;40.30;;;22.92;;
31652;SDS011;18261;53.648;9.910;2023-01-19T05:53:36;39.58;;;21.92;;
31652;SDS011;18261;53.648;9.910;2023-01-19T05:56:02;40.33;;;22.83;;
31652;SDS011;18261;53.648;9.910;2023-01-19T05:58:29;39.70;;;23.48;;
31652;SDS011;18261;53.648;9.910;2023-01-19T06:00:55;39.95;;;25.00;;
31652;SDS011;18261;53.648;9.910;2023-01-19T06:03:21;39.65;;;23.50;;
31652;SDS011;18261;53.648;9.910;2023-01-19T06:05:47;40.05;;;23.83;;
31652;SDS011;18261;53.648;9.910;2023-01-19T06:08:12;40.92;;;23.58;;
31652;SDS011;18261;53.648;9.910;2023-01-19T06:10:38;38.47;;;25.00;;
31652;SDS011;18261;53.648;9.910;2023-01-19T06:13:04;41.38;;;23.95;;
31652;SDS011;18261;53.648;9.910;2023-01-19T06:15:29;43.17;;;25.38;;
31652;SDS011;18261;53.648;9.910;2023-01-19T06:17:55;45.75;;;25.83;;
31652;SDS011;18261;53.648;9.910;2023-01-19T06:20:20;45.47;;;25.70;;
31652;SDS011;18261;53.648;9.910;2023-01-19T06:22:46;46.45;;;27.77;;
31652;SDS011;18261;53.648;9.910;2023-01-19T06:25:11;41.22;;;25.67;;
31652;SDS011;18261;53.648;9.910;2023-01-19T06:27:37;51.05;;;27.42;;
31652;SDS011;18261;53.648;9.910;2023-01-19T06:30:07;39.65;;;24.83;;
31652;SDS011;18261;53.648;9.910;2023-01-19T06:32:32;47.63;;;25.85;;
31652;SDS011;18261;53.648;9.910;2023-01-19T06:34:58;48.20;;;25.92;;
31652;SDS011;18261;53.648;9.910;2023-01-19T06:37:24;43.92;;;26.13;;
31652;SDS011;18261;53.648;9.910;2023-01-19T06:39:51;44.15;;;25.38;;
31652;SDS011;18261;53.648;9.910;2023-01-19T06:42:16;42.13;;;26.33;;
31652;SDS011;18261;53.648;9.910;2023-01-19T06:44:42;42.83;;;24.73;;
31652;SDS011;18261;53.648;9.910;2023-01-19T06:47:11;40.53;;;25.15;;
31652;SDS011;18261;53.648;9.910;2023-01-19T06:49:37;42.03;;;24.02;;
31652;SDS011;18261;53.648;9.910;2023-01-19T06:52:03;40.58;;;24.63;;
31652;SDS011;18261;53.648;9.910;2023-01-19T06:54:28;36.92;;;23.90;;
31652;SDS011;18261;53.648;9.910;2023-01-19T06:56:54;41.65;;;25.63;;
31652;SDS011;18261;53.648;9.910;2023-01-19T06:59:19;42.17;;;24.58;;
31652;SDS011;18261;53.648;9.910;2023-01-19T07:01:45;38.53;;;24.48;;
31652;SDS011;18261;53.648;9.910;2023-01-19T07:04:10;37.25;;;23.73;;
31652;SDS011;18261;53.648;9.910;2023-01-19T07:06:38;42.75;;;25.25;;
31652;SDS011;18261;53.648;9.910;2023-01-19T07:09:03;41.95;;;26.30;;
31652;SDS011;18261;53.648;9.910;2023-01-19T07:11:32;39.90;;;25.70;;
31652;SDS011;18261;53.648;9.910;2023-01-19T07:13:58;43.30;;;27.08;;
31652;SDS011;18261;53.648;9.910;2023-01-19T07:16:23;43.15;;;27.10;;
31652;SDS011;18261;53.648;9.910;2023-01-19T07:18:49;39.00;;;26.55;;
31652;SDS011;18261;53.648;9.910;2023-01-19T07:21:15;41.45;;;26.60;;
31652;SDS011;18261;53.648;9.910;2023-01-19T07:23:40;43.45;;;27.15;;
31652;SDS011;18261;53.648;9.910;2023-01-19T07:26:08;46.25;;;27.35;;
31652;SDS011;18261;53.648;9.910;2023-01-19T07:28:34;50.05;;;28.42;;
31652;SDS011;18261;53.648;9.910;2023-01-19T07:31:01;47.20;;;27.98;;
31652;SDS011;18261;53.648;9.910;2023-01-19T07:33:26;43.70;;;27.70;;
31652;SDS011;18261;53.648;9.910;2023-01-19T07:35:53;45.70;;;27.83;;
31652;SDS011;18261;53.648;9.910;2023-01-19T07:38:18;44.80;;;28.88;;
31652;SDS011;18261;53.648;9.910;2023-01-19T07:40:44;42.75;;;27.23;;
31652;SDS011;18261;53.648;9.910;2023-01-19T07:43:13;46.97;;;28.27;;
31652;SDS011;18261;53.648;9.910;2023-01-19T07:45:39;42.83;;;28.10;;
31652;SDS011;18261;53.648;9.910;2023-01-19T07:48:04;44.63;;;26.42;;
31652;SDS011;18261;53.648;9.910;2023-01-19T07:50:30;47.53;;;29.25;;
31652;SDS011;18261;53.648;9.910;2023-01-19T07:52:56;44.33;;;28.33;;
31652;SDS011;18261;53.648;9.910;2023-01-19T07:55:22;45.53;;;29.23;;
31652;SDS011;18261;53.648;9.910;2023-01-19T07:57:48;51.72;;;30.80;;
31652;SDS011;18261;53.648;9.910;2023-01-19T08:00:15;46.33;;;29.52;;
31652;SDS011;18261;53.648;9.910;2023-01-19T08:02:44;51.83;;;30.58;;
31652;SDS011;18261;53.648;9.910;2023-01-19T08:05:10;46.55;;;29.90;;
31652;SDS011;18261;53.648;9.910;2023-01-19T08:07:35;49.35;;;31.17;;
31652;SDS011;18261;53.648;9.910;2023-01-19T08:10:01;47.33;;;29.42;;
31652;SDS011;18261;53.648;9.910;2023-01-19T08:12:26;50.90;;;31.48;;
31652;SDS011;18261;53.648;9.910;2023-01-19T08:14:52;49.95;;;30.25;;
31652;SDS011;18261;53.648;9.910;2023-01-19T08:17:17;52.22;;;31.35;;
31652;SDS011;18261;53.648;9.910;2023-01-19T08:19:43;52.97;;;31.80;;
31652;SDS011;18261;53.648;9.910;2023-01-19T08:22:09;54.25;;;29.90;;
31652;SDS011;18261;53.648;9.910;2023-01-19T08:24:34;47.30;;;30.60;;
31652;SDS011;18261;53.648;9.910;2023-01-19T08:27:02;51.72;;;31.25;;
31652;SDS011;18261;53.648;9.910;2023-01-19T08:29:28;50.20;;;30.20;;
31652;SDS011;18261;53.648;9.910;2023-01-19T08:31:57;52.28;;;31.58;;
31652;SDS011;18261;53.648;9.910;2023-01-19T08:34:26;53.63;;;31.52;;
31652;SDS011;18261;53.648;9.910;2023-01-19T08:36:51;54.40;;;31.23;;
31652;SDS011;18261;53.648;9.910;2023-01-19T08:39:16;52.47;;;30.23;;
31652;SDS011;18261;53.648;9.910;2023-01-19T08:41:42;46.45;;;28.95;;
31652;SDS011;18261;53.648;9.910;2023-01-19T08:44:08;46.63;;;29.48;;
31652;SDS011;18261;53.648;9.910;2023-01-19T08:46:34;49.20;;;30.15;;
31652;SDS011;18261;53.648;9.910;2023-01-19T08:48:59;50.60;;;29.13;;
31652;SDS011;18261;53.648;9.910;2023-01-19T08:51:25;48.20;;;27.60;;
31652;SDS011;18261;53.648;9.910;2023-01-19T08:53:50;51.67;;;28.55;;
31652;SDS011;18261;53.648;9.910;2023-01-19T08:56:16;47.88;;;27.85;;
31652;SDS011;18261;53.648;9.910;2023-01-19T08:58:42;50.80;;;27.90;;
31652;SDS011;18261;53.648;9.910;2023-01-19T09:01:11;49.80;;;27.92;;
31652;SDS011;18261;53.648;9.910;2023-01-19T09:03:45;45.20;;;27.75;;
31652;SDS011;18261;53.648;9.910;2023-01-19T09:06:12;46.50;;;27.60;;
31652;SDS011;18261;53.648;9.910;2023-01-19T09:08:41;46.60;;;28.13;;
31652;SDS011;18261;53.648;9.910;2023-01-19T09:11:10;46.72;;;28.00;;
31652;SDS011;18261;53.648;9.910;2023-01-19T09:13:36;47.47;;;28.15;;
31652;SDS011;18261;53.648;9.910;2023-01-19T09:16:03;48.35;;;27.52;;
31652;SDS011;18261;53.648;9.910;2023-01-19T09:18:31;49.47;;;27.60;;
31652;SDS011;18261;53.648;9.910;2023-01-19T09:20:57;46.05;;;28.52;;
31652;SDS011;18261;53.648;9.910;2023-01-19T09:23:23;43.15;;;27.20;;
31652;SDS011;18261;53.648;9.910;2023-01-19T09:25:54;47.22;;;28.83;;
31652;SDS011;18261;53.648;9.910;2023-01-19T09:28:21;53.72;;;29.27;;
31652;SDS011;18261;53.648;9.910;2023-01-19T09:30:46;47.55;;;27.95;;
31652;SDS011;18261;53.648;9.910;2023-01-19T09:33:13;49.92;;;28.73;;
31652;SDS011;18261;53.648;9.910;2023-01-19T09:35:41;49.70;;;27.88;;
31652;SDS011;18261;53.648;9.910;2023-01-19T09:38:07;46.95;;;28.58;;
31652;SDS011;18261;53.648;9.910;2023-01-19T09:40:34;47.08;;;27.40;;
31652;SDS011;18261;53.648;9.910;2023-01-19T09:45:52;51.05;;;28.40;;
31652;SDS011;18261;53.648;9.910;2023-01-19T09:48:38;49.45;;;28.10;;
31652;SDS011;18261;53.648;9.910;2023-01-19T09:56:24;50.50;;;30.27;;
31652;SDS011;18261;53.648;9.910;2023-01-19T09:58:51;46.50;;;28.27;;
31652;SDS011;18261;53.648;9.910;2023-01-19T10:01:31;50.40;;;28.63;;
31652;SDS011;18261;53.648;9.910;2023-01-19T10:04:24;42.45;;;27.63;;
31652;SDS011;18261;53.648;9.910;2023-01-19T10:07:07;52.90;;;29.20;;
31652;SDS011;18261;53.648;9.910;2023-01-19T10:09:48;48.13;;;27.15;;
31652;SDS011;18261;53.648;9.910;2023-01-19T10:12:32;42.78;;;27.88;;
31652;SDS011;18261;53.648;9.910;2023-01-19T10:15:14;47.00;;;27.60;;
31652;SDS011;18261;53.648;9.910;2023-01-19T10:20:51;42.13;;;26.30;;
31652;SDS011;18261;53.648;9.910;2023-01-19T10:25:55;39.60;;;23.67;;
31652;SDS011;18261;53.648;9.910;2023-01-19T10:28:24;40.90;;;25.45;;
31652;SDS011;18261;53.648;9.910;2023-01-19T10:30:52;43.97;;;26.13;;
31652;SDS011;18261;53.648;9.910;2023-01-19T10:33:18;42.38;;;25.73;;
31652;SDS011;18261;53.648;9.910;2023-01-19T10:35:44;44.75;;;25.40;;
31652;SDS011;18261;53.648;9.910;2023-01-19T10:38:12;37.85;;;24.75;;
31652;SDS011;18261;53.648;9.910;2023-01-19T10:40:54;46.03;;;24.40;;
31652;SDS011;18261;53.648;9.910;2023-01-19T10:46:06;37.40;;;24.38;;
31652;SDS011;18261;53.648;9.910;2023-01-19T10:48:47;42.53;;;25.58;;
31652;SDS011;18261;53.648;9.910;2023-01-19T10:51:14;37.70;;;24.75;;
31652;SDS011;18261;53.648;9.910;2023-01-19T10:53:51;40.90;;;25.33;;
31652;SDS011;18261;53.648;9.910;2023-01-19T10:56:20;39.03;;;24.05;;
31652;SDS011;18261;53.648;9.910;2023-01-19T10:58:48;41.05;;;25.65;;
31652;SDS011;18261;53.648;9.910;2023-01-19T11:01:16;39.50;;;22.83;;
31652;SDS011;18261;53.648;9.910;2023-01-19T11:03:43;36.17;;;23.70;;
31652;SDS011;18261;53.648;9.910;2023-01-19T11:08:37;40.13;;;24.13;;
31652;SDS011;18261;53.648;9.910;2023-01-19T11:11:03;42.28;;;24.05;;
31652;SDS011;18261;53.648;9.910;2023-01-19T11:13:32;38.72;;;24.35;;
31652;SDS011;18261;53.648;9.910;2023-01-19T11:16:14;39.60;;;24.95;;
31652;SDS011;18261;53.648;9.910;2023-01-19T11:18:52;37.20;;;24.40;;
31652;SDS011;18261;53.648;9.910;2023-01-19T11:21:22;43.13;;;24.85;;
31652;SDS011;18261;53.648;9.910;2023-01-19T11:23:52;39.72;;;23.92;;
31652;SDS011;18261;53.648;9.910;2023-01-19T11:29:22;42.42;;;24.00;;
31652;SDS011;18261;53.648;9.910;2023-01-19T11:31:49;40.60;;;25.50;;
31652;SDS011;18261;53.648;9.910;2023-01-19T11:34:24;39.70;;;24.25;;
31652;SDS011;18261;53.648;9.910;2023-01-19T11:37:07;41.45;;;24.52;;
31652;SDS011;18261;53.648;9.910;2023-01-19T11:39:44;43.67;;;24.33;;
31652;SDS011;18261;53.648;9.910;2023-01-19T11:42:12;40.03;;;24.50;;
31652;SDS011;18261;53.648;9.910;2023-01-19T11:44:43;42.80;;;24.23;;
31652;SDS011;18261;53.648;9.910;2023-01-19T11:47:24;38.50;;;24.42;;
31652;SDS011;18261;53.648;9.910;2023-01-19T11:49:57;40.58;;;25.27;;
31652;SDS011;18261;53.648;9.910;2023-01-19T11:52:33;38.72;;;24.70;;
31652;SDS011;18261;53.648;9.910;2023-01-19T11:58:00;41.65;;;24.13;;
31652;SDS011;18261;53.648;9.910;2023-01-19T12:00:33;45.85;;;24.20;;
31652;SDS011;18261;53.648;9.910;2023-01-19T12:03:22;46.45;;;23.88;;
31652;SDS011;18261;53.648;9.910;2023-01-19T12:06:00;39.55;;;24.42;;
31652;SDS011;18261;53.648;9.910;2023-01-19T12:08:30;50.03;;;25.58;;
31652;SDS011;18261;53.648;9.910;2023-01-19T12:11:03;42.92;;;25.05;;
31652;SDS011;18261;53.648;9.910;2023-01-19T12:13:31;64.85;;;32.55;;
31652;SDS011;18261;53.648;9.910;2023-01-19T12:18:32;46.15;;;24.65;;
31652;SDS011;18261;53.648;9.910;2023-01-19T12:21:03;50.03;;;26.38;;
31652;SDS011;18261;53.648;9.910;2023-01-19T12:28:41;42.25;;;24.67;;
31652;SDS011;18261;53.648;9.910;2023-01-19T12:31:12;44.08;;;25.50;;
31652;SDS011;18261;53.648;9.910;2023-01-19T12:33:40;41.72;;;23.85;;
31652;SDS011;18261;53.648;9.910;2023-01-19T12:41:14;41.03;;;23.42;;
31652;SDS011;18261;53.648;9.910;2023-01-19T12:46:53;38.85;;;22.95;;
31652;SDS011;18261;53.648;9.910;2023-01-19T12:52:30;43.92;;;21.80;;
31652;SDS011;18261;53.648;9.910;2023-01-19T12:54:59;37.58;;;23.00;;
31652;SDS011;18261;53.648;9.910;2023-01-19T12:57:38;39.90;;;22.70;;
31652;SDS011;18261;53.648;9.910;2023-01-19T13:13:20;45.45;;;23.33;;
31652;SDS011;18261;53.648;9.910;2023-01-19T13:15:45;37.28;;;21.95;;
31652;SDS011;18261;53.648;9.910;2023-01-19T13:18:18;40.55;;;21.15;;
31652;SDS011;18261;53.648;9.910;2023-01-19T13:21:04;38.90;;;22.25;;
31652;SDS011;18261;53.648;9.910;2023-01-19T13:26:16;31.92;;;19.95;;
31652;SDS011;18261;53.648;9.910;2023-01-19T13:28:45;37.60;;;21.17;;
31652;SDS011;18261;53.648;9.910;2023-01-19T13:31:16;37.10;;;20.50;;
31652;SDS011;18261;53.648;9.910;2023-01-19T13:38:59;32.28;;;19.23;;
31652;SDS011;18261;53.648;9.910;2023-01-19T13:41:29;31.50;;;17.90;;
31652;SDS011;18261;53.648;9.910;2023-01-19T13:44:02;34.00;;;18.50;;
31652;SDS011;18261;53.648;9.910;2023-01-19T13:46:33;37.17;;;19.17;;
31652;SDS011;18261;53.648;9.910;2023-01-19T13:49:48;32.67;;;18.70;;
31652;SDS011;18261;53.648;9.910;2023-01-19T13:52:03;35.67;;;18.95;;
31652;SDS011;18261;53.648;9.910;2023-01-19T13:54:56;31.88;;;18.92;;
31652;SDS011;18261;53.648;9.910;2023-01-19T13:57:27;30.35;;;18.02;;
31652;SDS011;18261;53.648;9.910;2023-01-19T14:02:50;30.27;;;17.83;;
31652;SDS011;18261;53.648;9.910;2023-01-19T14:08:11;35.83;;;16.77;;
31652;SDS011;18261;53.648;9.910;2023-01-19T14:11:21;29.02;;;17.20;;
31652;SDS011;18261;53.648;9.910;2023-01-19T14:13:29;34.75;;;17.88;;
31652;SDS011;18261;53.648;9.910;2023-01-19T14:16:16;30.83;;;17.35;;
31652;SDS011;18261;53.648;9.910;2023-01-19T14:18:42;34.40;;;17.17;;
31652;SDS011;18261;53.648;9.910;2023-01-19T14:21:08;32.78;;;17.83;;
31652;SDS011;18261;53.648;9.910;2023-01-19T14:31:50;34.55;;;17.67;;
31652;SDS011;18261;53.648;9.910;2023-01-19T14:34:35;31.73;;;16.25;;
31652;SDS011;18261;53.648;9.910;2023-01-19T14:42:35;31.77;;;17.73;;
31652;SDS011;18261;53.648;9.910;2023-01-19T14:45:04;29.92;;;17.02;;
31652;SDS011;18261;53.648;9.910;2023-01-19T14:47:40;32.58;;;16.55;;
31652;SDS011;18261;53.648;9.910;2023-01-19T14:50:16;31.08;;;15.63;;
31652;SDS011;18261;53.648;9.910;2023-01-19T14:52:49;26.73;;;14.93;;
31652;SDS011;18261;53.648;9.910;2023-01-19T14:55:24;30.63;;;13.93;;
31652;SDS011;18261;53.648;9.910;2023-01-19T14:57:57;30.27;;;14.50;;
31652;SDS011;18261;53.648;9.910;2023-01-19T15:00:22;29.65;;;15.52;;
31652;SDS011;18261;53.648;9.910;2023-01-19T15:02:48;26.52;;;13.57;;
31652;SDS011;18261;53.648;9.910;2023-01-19T15:05:14;32.17;;;14.20;;
31652;SDS011;18261;53.648;9.910;2023-01-19T15:07:42;26.75;;;13.88;;
31652;SDS011;18261;53.648;9.910;2023-01-19T15:10:10;27.60;;;14.38;;
31652;SDS011;18261;53.648;9.910;2023-01-19T15:12:44;27.60;;;13.60;;
31652;SDS011;18261;53.648;9.910;2023-01-19T15:15:14;31.95;;;15.20;;
31652;SDS011;18261;53.648;9.910;2023-01-19T15:17:46;28.15;;;13.73;;
31652;SDS011;18261;53.648;9.910;2023-01-19T15:20:17;28.80;;;14.07;;
31652;SDS011;18261;53.648;9.910;2023-01-19T15:22:44;27.77;;;13.30;;
31652;SDS011;18261;53.648;9.910;2023-01-19T15:25:14;23.55;;;12.77;;
31652;SDS011;18261;53.648;9.910;2023-01-19T15:27:41;23.55;;;12.20;;
31652;SDS011;18261;53.648;9.910;2023-01-19T15:30:12;26.80;;;14.05;;
31652;SDS011;18261;53.648;9.910;2023-01-19T15:32:43;30.02;;;13.27;;
31652;SDS011;18261;53.648;9.910;2023-01-19T15:35:16;33.72;;;13.38;;
31652;SDS011;18261;53.648;9.910;2023-01-19T15:37:43;25.08;;;12.68;;
31652;SDS011;18261;53.648;9.910;2023-01-19T15:40:09;32.85;;;13.02;;
31652;SDS011;18261;53.648;9.910;2023-01-19T15:42:35;32.22;;;13.32;;
31652;SDS011;18261;53.648;9.910;2023-01-19T15:45:01;29.63;;;14.32;;
31652;SDS011;18261;53.648;9.910;2023-01-19T15:47:27;31.65;;;13.82;;
31652;SDS011;18261;53.648;9.910;2023-01-19T15:49:52;33.55;;;14.68;;
31652;SDS011;18261;53.648;9.910;2023-01-19T15:52:18;29.98;;;14.88;;
31652;SDS011;18261;53.648;9.910;2023-01-19T15:54:43;30.55;;;15.27;;
31652;SDS011;18261;53.648;9.910;2023-01-19T15:57:09;31.95;;;15.70;;
31652;SDS011;18261;53.648;9.910;2023-01-19T15:59:34;35.42;;;16.58;;
31652;SDS011;18261;53.648;9.910;2023-01-19T16:02:00;36.55;;;16.02;;
31652;SDS011;18261;53.648;9.910;2023-01-19T16:04:26;33.85;;;16.67;;
31652;SDS011;18261;53.648;9.910;2023-01-19T16:06:51;36.72;;;15.07;;
31652;SDS011;18261;53.648;9.910;2023-01-19T16:09:17;32.20;;;13.75;;
31652;SDS011;18261;53.648;9.910;2023-01-19T16:11:44;30.92;;;13.48;;
31652;SDS011;18261;53.648;9.910;2023-01-19T16:14:09;25.20;;;10.45;;
31652;SDS011;18261;53.648;9.910;2023-01-19T16:16:35;28.70;;;9.73;;
31652;SDS011;18261;53.648;9.910;2023-01-19T16:19:01;33.50;;;10.70;;